Time;durP1;ratioP1;P1;durP2;ratioP2;P2;SDS_P1;SDS_P2;PMS_P1;PMS_P2;Temp;Humidity;BMP_temperature;BMP_pressure;BME280_temperature;BME280_humidity;BME280_pressure;Samples;Min_cycle;Max_cycle;Signal;HPM_P1;HPM_P2
2023/09/02 00:01:42;;;;;;;30.75;2.30;;;;;;;15.22;71.08;100075.50;10391449;28;20050;-59
2023/09/02 00:06:44;;;;;;;36.83;1.60;;;;;;;15.31;70.98;100077.41;10389647;28;20053;-59
2023/09/02 00:11:46;;;;;;;36.90;2.67;;;;;;;15.25;70.78;100077.03;10396692;28;20060;-59
2023/09/02 00:16:48;;;;;;;131.52;4.40;;;;;;;15.14;70.94;100079.66;10390687;28;20533;-59
2023/09/02 00:21:49;;;;;;;24.92;2.35;;;;;;;15.16;71.11;100083.84;10394949;28;20068;-59
2023/09/02 00:26:51;;;;;;;76.30;3.00;;;;;;;15.15;70.76;100079.53;10389073;28;20076;-59
2023/09/02 00:31:53;;;;;;;45.60;2.00;;;;;;;15.11;70.84;100079.88;10394133;28;20049;-59
2023/09/02 00:36:56;;;;;;;18.40;1.60;;;;;;;15.04;70.99;100084.78;10392776;28;20055;-60
2023/09/02 00:42:00;;;;;;;61.22;2.08;;;;;;;14.94;71.19;100088.25;10388632;28;20037;-61
2023/09/02 00:47:02;;;;;;;43.05;1.90;;;;;;;14.83;71.10;100088.19;10390004;28;20038;-60
2023/09/02 00:52:04;;;;;;;6.72;1.10;;;;;;;14.77;71.35;100094.78;10390790;28;20049;-61
2023/09/02 00:57:08;;;;;;;23.95;1.95;;;;;;;14.80;71.24;100091.06;10388309;28;20152;-61
2023/09/02 01:02:11;;;;;;;78.32;2.50;;;;;;;14.83;71.26;100085.56;10421852;28;20045;-61
2023/09/02 01:07:14;;;;;;;18.13;1.73;;;;;;;14.85;71.39;100081.03;10387009;28;20576;-60
2023/09/02 01:12:17;;;;;;;39.45;2.25;;;;;;;14.78;71.16;100092.97;10387840;28;20057;-60
2023/09/02 01:17:20;;;;;;;15.10;1.50;;;;;;;14.79;71.71;100095.50;10383607;28;20048;-61
2023/09/02 01:22:37;;;;;;;15.75;1.38;;;;;;;14.90;71.71;100087.63;10389480;28;20421;-61
2023/09/02 01:27:51;;;;;;;55.38;3.55;;;;;;;14.98;71.35;100087.88;10385840;28;20056;-61
2023/09/02 01:32:56;;;;;;;46.38;3.13;;;;;;;14.97;70.98;100095.91;10385565;28;20156;-60
2023/09/02 01:38:00;;;;;;;75.97;2.85;;;;;;;14.81;71.33;100093.59;10389513;28;20054;-60
2023/09/02 01:43:04;;;;;;;16.23;1.73;;;;;;;14.73;71.73;100100.38;10388188;28;20045;-61
2023/09/02 01:48:07;;;;;;;76.75;3.35;;;;;;;14.73;71.89;100105.63;10394015;28;20390;-61
2023/09/02 01:53:09;;;;;;;33.38;2.08;;;;;;;14.93;71.72;100103.19;10390967;28;20045;-60
2023/09/02 01:58:11;;;;;;;114.00;4.22;;;;;;;14.85;71.37;100112.63;10383005;28;20045;-61
2023/09/02 02:03:40;;;;;;;43.15;1.80;;;;;;;14.92;71.29;100121.75;10395154;28;20273;-60
2023/09/02 02:08:52;;;;;;;47.17;2.13;;;;;;;14.66;71.14;100121.03;10393334;28;20056;-61
2023/09/02 02:14:01;;;;;;;42.03;2.17;;;;;;;14.41;71.76;100119.31;10393975;28;20057;-60
2023/09/02 02:19:03;;;;;;;5.25;1.67;;;;;;;14.35;71.97;100114.50;10413563;28;20052;-61
2023/09/02 02:24:05;;;;;;;40.25;2.72;;;;;;;14.50;71.95;100118.69;10399162;28;20041;-61
2023/09/02 02:29:07;;;;;;;46.72;1.95;;;;;;;14.46;71.66;100124.25;10398535;28;20163;-60
2023/09/02 02:34:09;;;;;;;17.52;2.30;;;;;;;14.59;72.04;100131.16;10386482;28;20068;-61
2023/09/02 02:39:11;;;;;;;4.85;1.40;;;;;;;14.75;71.89;100133.53;10375334;28;20162;-61
2023/09/02 02:44:13;;;;;;;80.93;3.05;;;;;;;14.79;71.49;100131.50;10419652;28;20045;-61
2023/09/02 02:49:15;;;;;;;13.23;2.33;;;;;;;14.68;71.69;100134.91;10399465;28;20510;-61
2023/09/02 02:54:17;;;;;;;7.40;1.85;;;;;;;14.73;71.37;100138.06;10404237;28;20502;-61
2023/09/02 02:59:19;;;;;;;35.50;2.78;;;;;;;14.79;71.33;100142.03;10435907;28;20046;-61
2023/09/02 03:04:21;;;;;;;11.68;2.42;;;;;;;14.71;71.37;100142.63;10421637;28;20132;-61
2023/09/02 03:09:23;;;;;;;112.05;3.53;;;;;;;14.72;71.15;100144.28;10397987;28;20141;-61
2023/09/02 03:14:26;;;;;;;5.78;1.40;;;;;;;14.46;71.21;100156.69;10410155;28;20064;-61
2023/09/02 03:19:28;;;;;;;33.67;1.70;;;;;;;14.54;71.69;100159.63;10394349;28;20045;-61
2023/09/02 03:24:31;;;;;;;32.53;2.50;;;;;;;14.46;71.15;100155.84;10395495;28;20127;-61
2023/09/02 03:29:33;;;;;;;16.23;2.03;;;;;;;14.39;71.44;100159.88;10378445;28;20072;-61
2023/09/02 03:34:36;;;;;;;29.17;2.03;;;;;;;14.47;71.54;100160.97;10423826;28;20133;-61
2023/09/02 03:39:38;;;;;;;2.70;1.30;;;;;;;14.63;71.42;100167.81;10395921;28;20045;-59
2023/09/02 03:44:40;;;;;;;35.53;1.90;;;;;;;14.74;70.97;100170.47;10405600;28;20052;-59
2023/09/02 03:49:42;;;;;;;2.60;1.50;;;;;;;14.66;71.37;100186.00;10408994;28;20449;-60
2023/09/02 03:54:44;;;;;;;57.63;2.53;;;;;;;14.59;71.07;100186.44;10375480;28;20091;-59
2023/09/02 03:59:46;;;;;;;35.67;1.88;;;;;;;14.52;71.30;100193.13;10396326;28;20143;-60
2023/09/02 04:04:48;;;;;;;9.02;1.35;;;;;;;14.45;71.24;100185.75;10403718;28;20072;-59
2023/09/02 04:09:51;;;;;;;8.70;1.63;;;;;;;14.52;71.09;100187.00;10389756;28;20054;-59
2023/09/02 04:14:53;;;;;;;72.05;2.95;;;;;;;14.52;70.95;100179.94;10424124;28;20045;-59
2023/09/02 04:19:55;;;;;;;16.80;1.92;;;;;;;14.35;71.15;100185.53;10391127;28;20255;-59
2023/09/02 04:24:58;;;;;;;26.05;2.13;;;;;;;14.18;71.62;100183.28;10396948;28;20049;-60
2023/09/02 04:30:00;;;;;;;5.70;1.45;;;;;;;14.23;71.30;100182.94;10392060;28;20111;-60
2023/09/02 04:35:05;;;;;;;3.08;1.38;;;;;;;14.21;71.37;100190.94;10423705;28;20056;-60
2023/09/02 04:40:11;;;;;;;2.50;1.30;;;;;;;14.28;71.31;100201.88;10428666;28;20075;-61
2023/09/02 04:45:13;;;;;;;39.20;1.92;;;;;;;14.30;71.26;100198.19;10418240;28;20492;-61
2023/09/02 04:50:17;;;;;;;14.25;1.60;;;;;;;14.28;71.42;100200.09;10422130;28;20490;-61
2023/09/02 04:55:19;;;;;;;18.10;2.15;;;;;;;14.32;71.26;100195.44;10394560;28;20041;-61
2023/09/02 05:00:28;;;;;;;26.48;1.75;;;;;;;14.34;71.38;100189.13;10391143;28;20542;-62
2023/09/02 05:05:31;;;;;;;9.65;1.38;;;;;;;14.41;70.94;100190.34;10409981;28;20905;-61
2023/09/02 05:10:34;;;;;;;9.73;1.30;;;;;;;14.33;71.06;100192.69;10403472;28;20497;-61
2023/09/02 05:15:37;;;;;;;15.73;1.65;;;;;;;14.32;71.22;100196.28;10388474;28;20060;-61
2023/09/02 05:20:40;;;;;;;10.20;1.65;;;;;;;14.49;71.20;100195.94;10392336;28;20048;-62
2023/09/02 05:25:42;;;;;;;24.25;1.80;;;;;;;14.55;70.80;100198.13;10387247;28;20478;-61
2023/09/02 05:30:44;;;;;;;66.38;2.35;;;;;;;14.44;70.92;100200.69;10406892;28;20052;-61
2023/09/02 05:35:46;;;;;;;24.17;1.67;;;;;;;14.41;71.31;100210.59;10392001;28;20045;-61
2023/09/02 05:40:48;;;;;;;76.60;2.38;;;;;;;14.22;71.28;100215.47;10404915;28;20053;-62
2023/09/02 05:45:50;;;;;;;5.30;1.55;;;;;;;14.09;71.58;100207.59;10387954;28;20037;-60
2023/09/02 05:50:57;;;;;;;22.83;2.67;;;;;;;14.11;71.83;100218.00;10387121;28;20128;-61
2023/09/02 05:55:59;;;;;;;23.65;2.10;;;;;;;14.35;71.29;100216.28;10387788;28;20453;-62
2023/09/02 06:01:04;;;;;;;2.13;1.33;;;;;;;14.40;71.32;100211.53;10380516;28;20052;-62
2023/09/02 06:06:12;;;;;;;32.40;2.15;;;;;;;14.58;70.80;100219.00;10395887;28;20512;-62
2023/09/02 06:11:14;;;;;;;8.57;1.42;;;;;;;14.58;71.05;100213.72;10392503;28;20118;-60
2023/09/02 06:16:16;;;;;;;25.48;1.83;;;;;;;14.59;70.84;100219.84;10381012;28;20534;-61
2023/09/02 06:21:18;;;;;;;11.25;1.85;;;;;;;14.59;70.65;100220.66;10383557;28;20068;-61
2023/09/02 06:26:20;;;;;;;6.88;1.67;;;;;;;14.81;70.47;100222.59;10395492;28;20199;-61
2023/09/02 06:31:22;;;;;;;31.83;2.50;;;;;;;15.01;69.90;100221.13;10379878;28;20136;-60
2023/09/02 06:36:27;;;;;;;15.15;1.52;;;;;;;14.87;69.92;100226.56;10393573;28;20418;-61
2023/09/02 06:41:29;;;;;;;13.00;1.35;;;;;;;14.72;69.89;100225.03;10384659;28;20049;-61
2023/09/02 06:46:33;;;;;;;49.55;1.48;;;;;;;14.83;69.88;100235.66;10380152;28;20405;-60
2023/09/02 06:51:35;;;;;;;11.23;1.25;;;;;;;14.76;69.73;100248.41;10388828;28;20061;-61
2023/09/02 06:56:37;;;;;;;29.77;1.27;;;;;;;14.84;69.48;100258.41;10380525;28;20060;-61
2023/09/02 07:01:39;;;;;;;24.15;1.75;;;;;;;14.79;69.63;100265.78;10387019;28;20580;-61
2023/09/02 07:06:41;;;;;;;24.15;2.10;;;;;;;14.92;69.51;100271.88;10382208;28;20041;-60
2023/09/02 07:11:43;;;;;;;23.17;1.67;;;;;;;14.87;69.42;100287.13;10382654;28;20049;-61
2023/09/02 07:16:45;;;;;;;26.45;1.75;;;;;;;14.89;69.33;100301.88;10383715;28;20045;-61
2023/09/02 07:21:47;;;;;;;23.90;2.22;;;;;;;14.94;68.97;100306.84;10384010;28;20362;-61
2023/09/02 07:26:49;;;;;;;63.45;2.95;;;;;;;15.46;68.42;100307.34;10379497;28;20061;-60
2023/09/02 07:31:51;;;;;;;3.90;1.30;;;;;;;15.69;67.73;100308.31;10387269;28;20063;-60
2023/09/02 07:36:53;;;;;;;15.82;1.80;;;;;;;15.70;67.52;100325.78;10391449;28;20040;-61
2023/09/02 07:41:55;;;;;;;9.48;2.00;;;;;;;15.74;67.87;100325.47;10392688;28;20045;-62
2023/09/02 07:46:57;;;;;;;2.90;1.50;;;;;;;16.09;67.22;100328.94;10384424;28;20410;-61
2023/09/02 07:51:59;;;;;;;3.80;1.75;;;;;;;16.23;67.30;100331.34;10395111;28;20482;-61
2023/09/02 07:57:01;;;;;;;11.35;3.70;;;;;;;16.27;66.63;100329.31;10392194;28;20048;-61
2023/09/02 08:02:03;;;;;;;3.63;1.88;;;;;;;16.66;66.42;100342.09;10396882;28;20413;-62
2023/09/02 08:07:06;;;;;;;4.25;1.70;;;;;;;16.92;65.69;100351.44;10385333;28;20366;-62
2023/09/02 08:12:08;;;;;;;17.83;1.90;;;;;;;16.91;64.81;100346.28;10389076;28;20536;-62
2023/09/02 08:17:10;;;;;;;32.13;2.55;;;;;;;16.77;65.01;100352.63;10389175;28;20045;-61
2023/09/02 08:22:13;;;;;;;4.57;2.38;;;;;;;16.67;64.82;100353.50;10388589;28;20494;-61
2023/09/02 08:27:15;;;;;;;4.18;1.60;;;;;;;16.96;65.15;100349.38;10388403;28;20649;-61
2023/09/02 08:32:17;;;;;;;4.20;2.20;;;;;;;17.08;64.75;100343.13;10388427;28;20235;-61
2023/09/02 08:37:19;;;;;;;4.20;1.92;;;;;;;17.21;64.58;100332.41;10387020;28;20493;-62
2023/09/02 08:42:22;;;;;;;3.55;1.80;;;;;;;17.29;64.46;100338.75;10422012;28;20648;-62
2023/09/02 08:47:27;;;;;;;3.63;1.70;;;;;;;17.59;64.21;100336.28;10394110;28;20155;-62
2023/09/02 08:52:30;;;;;;;2.78;1.50;;;;;;;18.29;62.88;100341.00;10391599;28;20127;-62
2023/09/02 08:57:33;;;;;;;4.50;1.77;;;;;;;18.34;62.08;100347.56;10405717;28;20045;-62
2023/09/02 09:02:38;;;;;;;3.95;1.80;;;;;;;18.24;61.63;100340.56;10395409;28;20051;-62
2023/09/02 09:07:41;;;;;;;5.20;2.15;;;;;;;18.20;61.93;100341.81;10390046;28;20049;-62
2023/09/02 09:12:43;;;;;;;4.20;2.35;;;;;;;18.25;61.79;100342.22;10404224;28;20065;-62
2023/09/02 09:17:45;;;;;;;3.28;2.00;;;;;;;18.39;61.53;100348.03;10390658;28;20561;-62
2023/09/02 09:22:50;;;;;;;4.75;2.58;;;;;;;18.30;61.50;100354.09;10389757;28;20780;-62
2023/09/02 09:27:52;;;;;;;4.43;2.30;;;;;;;18.60;61.52;100361.25;10391317;28;20115;-63
2023/09/02 09:33:00;;;;;;;3.85;2.22;;;;;;;19.26;60.38;100346.56;10388631;28;20045;-62
2023/09/02 09:38:04;;;;;;;4.30;2.30;;;;;;;19.36;59.71;100353.56;10388122;28;20685;-62
2023/09/02 09:43:17;;;;;;;3.70;1.95;;;;;;;19.73;59.00;100358.19;10392871;28;20046;-62
2023/09/02 09:48:20;;;;;;;4.07;2.22;;;;;;;20.08;58.25;100346.06;10388278;28;20053;-62
2023/09/02 09:53:24;;;;;;;3.08;1.88;;;;;;;19.68;58.70;100350.69;10386838;28;20506;-62
2023/09/02 09:58:26;;;;;;;3.30;1.90;;;;;;;19.79;59.42;100360.28;10388720;28;20051;-62
2023/09/02 10:03:31;;;;;;;4.85;2.20;;;;;;;20.65;56.88;100358.41;10389235;28;20060;-62
2023/09/02 10:08:49;;;;;;;3.97;2.20;;;;;;;20.55;56.76;100362.88;10386091;28;20057;-62
2023/09/02 10:13:56;;;;;;;3.80;2.15;;;;;;;20.71;57.23;100352.50;10385321;28;20415;-62
2023/09/02 10:18:58;;;;;;;3.60;2.00;;;;;;;20.54;57.27;100363.84;10389689;28;20413;-62
2023/09/02 10:24:05;;;;;;;3.60;1.80;;;;;;;20.40;57.53;100366.16;10387200;28;20193;-62
2023/09/02 10:29:10;;;;;;;3.55;2.00;;;;;;;20.91;57.14;100350.56;10387233;28;20418;-62
2023/09/02 10:34:53;;;;;;;3.42;1.90;;;;;;;20.82;56.98;100364.78;10386629;28;20042;-62
2023/09/02 10:40:05;;;;;;;3.17;1.63;;;;;;;20.96;56.49;100354.50;10384194;28;20387;-62
2023/09/02 10:45:08;;;;;;;5.70;1.58;;;;;;;20.97;57.25;100357.97;10390892;28;20049;-62
2023/09/02 10:50:12;;;;;;;2.10;1.38;;;;;;;20.75;57.24;100350.38;10386000;28;20042;-62
2023/09/02 10:55:15;;;;;;;2.38;1.50;;;;;;;20.72;57.78;100335.53;10391944;28;20068;-62
2023/09/02 11:00:17;;;;;;;2.25;1.23;;;;;;;20.50;57.78;100333.22;10389513;28;20049;-62
2023/09/02 11:05:20;;;;;;;2.25;1.20;;;;;;;20.67;57.55;100329.84;10391189;28;20077;-62
2023/09/02 11:10:52;;;;;;;1.58;1.10;;;;;;;20.71;56.72;100335.69;10400018;28;20080;-62
2023/09/02 11:16:17;;;;;;;0.73;0.73;;;;;;;20.71;56.08;100333.88;10408493;28;20054;-62
2023/09/02 11:21:42;;;;;;;1.25;0.90;;;;;;;20.99;55.90;100335.56;10392800;28;20751;-62
2023/09/02 11:26:52;;;;;;;1.58;0.82;;;;;;;21.14;55.64;100332.41;10394806;28;20139;-62
2023/09/02 11:31:59;;;;;;;0.85;0.80;;;;;;;21.46;55.49;100327.44;10397550;28;20045;-62
2023/09/02 11:37:12;;;;;;;1.23;0.70;;;;;;;21.70;55.11;100323.19;10397714;28;20041;-61
2023/09/02 11:42:16;;;;;;;1.63;1.00;;;;;;;22.07;54.69;100304.38;10396545;28;20038;-61
2023/09/02 11:47:19;;;;;;;0.73;0.73;;;;;;;22.02;54.47;100314.66;10395953;28;20194;-61
2023/09/02 11:52:22;;;;;;;0.95;0.82;;;;;;;22.15;54.07;100309.75;10392151;28;20167;-62
2023/09/02 11:57:24;;;;;;;0.95;0.85;;;;;;;22.23;52.84;100320.47;10394558;28;20387;-61
2023/09/02 12:02:26;;;;;;;0.75;0.70;;;;;;;22.48;53.53;100322.28;10392039;28;20394;-61
2023/09/02 12:07:28;;;;;;;0.70;0.70;;;;;;;22.66;53.05;100315.06;10399545;28;20140;-61
2023/09/02 12:12:30;;;;;;;1.23;0.68;;;;;;;22.81;53.21;100317.16;10396335;28;20977;-61
2023/09/02 12:17:32;;;;;;;0.77;0.73;;;;;;;22.86;52.91;100305.00;10390906;28;20075;-61
2023/09/02 12:22:38;;;;;;;0.77;0.65;;;;;;;23.06;50.86;100318.91;10395910;28;20091;-62
2023/09/02 12:27:40;;;;;;;0.75;0.63;;;;;;;23.05;52.05;100311.91;10390413;28;20048;-61
2023/09/02 12:32:45;;;;;;;1.83;0.70;;;;;;;23.12;51.51;100311.09;10395243;28;20072;-61
2023/09/02 12:38:03;;;;;;;0.98;0.63;;;;;;;23.30;49.48;100319.81;10393089;28;20936;-61
2023/09/02 12:43:05;;;;;;;0.90;0.60;;;;;;;23.36;50.30;100327.16;10392781;28;20042;-61
2023/09/02 12:48:07;;;;;;;1.52;0.70;;;;;;;23.55;49.62;100325.22;10390561;28;20056;-61
2023/09/02 12:53:12;;;;;;;1.02;0.90;;;;;;;23.63;50.07;100331.41;10386458;28;20493;-61
2023/09/02 12:58:14;;;;;;;0.90;0.70;;;;;;;23.98;50.35;100315.03;10387406;28;20144;-60
2023/09/02 13:03:16;;;;;;;1.65;0.80;;;;;;;23.95;49.56;100319.88;10386520;28;20060;-61
2023/09/02 13:08:19;;;;;;;0.68;0.68;;;;;;;23.78;49.98;100323.59;10387497;28;20050;-61
2023/09/02 13:13:21;;;;;;;2.03;0.85;;;;;;;24.13;49.67;100315.22;10387787;28;20053;-61
2023/09/02 13:18:25;;;;;;;0.80;0.70;;;;;;;24.22;49.10;100316.91;10386562;28;20064;-61
2023/09/02 13:23:31;;;;;;;2.05;0.63;;;;;;;24.39;48.38;100323.06;10388539;28;20045;-60
2023/09/02 13:28:36;;;;;;;1.02;0.65;;;;;;;24.55;49.15;100321.13;10387390;28;20050;-61
2023/09/02 13:33:42;;;;;;;2.13;0.68;;;;;;;24.27;48.14;100326.06;10391263;28;20050;-60
2023/09/02 13:38:44;;;;;;;1.00;0.80;;;;;;;24.05;49.42;100326.72;10392095;28;20081;-61
2023/09/02 13:43:47;;;;;;;0.98;0.68;;;;;;;24.19;49.63;100328.75;10387416;28;20509;-61
2023/09/02 13:48:49;;;;;;;1.85;0.70;;;;;;;24.12;49.00;100333.09;10389690;28;20577;-61
2023/09/02 13:53:53;;;;;;;0.70;0.70;;;;;;;23.94;48.79;100344.94;10388778;28;20045;-61
2023/09/02 13:58:55;;;;;;;1.17;0.60;;;;;;;24.19;48.42;100344.78;10385323;28;20062;-62
2023/09/02 14:03:58;;;;;;;0.82;0.60;;;;;;;24.40;48.70;100343.41;10389882;28;20051;-61
2023/09/02 14:09:01;;;;;;;3.72;1.02;;;;;;;24.75;48.33;100341.19;10386448;28;20294;-61
2023/09/02 14:14:04;;;;;;;0.63;0.45;;;;;;;24.78;48.15;100348.84;10389793;28;20053;-61
2023/09/02 14:19:06;;;;;;;2.05;1.05;;;;;;;24.99;48.10;100332.22;10389141;28;20505;-61
2023/09/02 14:24:08;;;;;;;0.95;0.77;;;;;;;24.83;47.97;100326.94;10389423;28;20468;-61
2023/09/02 14:29:10;;;;;;;1.70;1.27;;;;;;;24.92;47.89;100323.22;10385247;28;20595;-61
2023/09/02 14:34:12;;;;;;;0.90;0.63;;;;;;;25.02;47.76;100326.50;10389065;28;20041;-61
2023/09/02 14:39:14;;;;;;;0.95;0.60;;;;;;;25.03;47.17;100312.97;10418216;28;20052;-61
2023/09/02 14:44:16;;;;;;;0.40;0.38;;;;;;;24.93;47.00;100322.22;10391944;28;20049;-61
2023/09/02 14:49:19;;;;;;;1.38;0.80;;;;;;;24.83;47.29;100319.75;10394449;28;20049;-61
2023/09/02 14:54:21;;;;;;;4.82;0.60;;;;;;;24.97;47.76;100304.81;10395815;28;20048;-61
2023/09/02 14:59:24;;;;;;;0.82;0.70;;;;;;;24.79;47.56;100314.91;10395983;28;20396;-61
2023/09/02 15:04:27;;;;;;;0.50;0.50;;;;;;;25.03;47.69;100314.81;10396586;28;20410;-61
2023/09/02 15:09:31;;;;;;;0.60;0.50;;;;;;;25.26;46.66;100313.00;10392610;28;20323;-62
2023/09/02 15:14:34;;;;;;;0.45;0.43;;;;;;;25.17;46.44;100327.44;10395359;28;20058;-60
2023/09/02 15:19:36;;;;;;;0.45;0.45;;;;;;;25.33;46.52;100330.03;10394917;28;20057;-60
2023/09/02 15:24:39;;;;;;;3.35;0.90;;;;;;;25.38;46.55;100326.84;10392790;28;20387;-60
2023/09/02 15:29:41;;;;;;;0.93;0.63;;;;;;;25.59;46.95;100330.53;10393432;28;20053;-60
2023/09/02 15:34:49;;;;;;;0.50;0.43;;;;;;;25.65;45.85;100331.69;10391465;28;20041;-62
2023/09/02 15:39:54;;;;;;;0.63;0.60;;;;;;;25.73;46.17;100329.75;10392897;28;20123;-60
2023/09/02 15:44:56;;;;;;;0.90;0.70;;;;;;;25.89;46.32;100331.50;10413627;28;20056;-61
2023/09/02 15:49:58;;;;;;;0.90;0.70;;;;;;;26.14;45.81;100330.28;10392621;28;20046;-61
2023/09/02 15:55:00;;;;;;;0.50;0.50;;;;;;;26.21;45.38;100316.97;10392625;28;20204;-61
2023/09/02 16:00:02;;;;;;;0.73;0.70;;;;;;;26.09;46.16;100316.59;10390555;28;20518;-61
2023/09/02 16:05:13;;;;;;;0.77;0.65;;;;;;;26.04;46.92;100323.53;10395875;28;20487;-61
2023/09/02 16:10:16;;;;;;;0.50;0.47;;;;;;;25.83;47.84;100333.03;10392937;28;20084;-61
2023/09/02 16:15:21;;;;;;;1.05;0.70;;;;;;;25.49;48.74;100327.28;10396034;28;20552;-61
2023/09/02 16:20:23;;;;;;;4.70;0.88;;;;;;;25.04;48.80;100327.16;10393028;28;20064;-61
2023/09/02 16:25:25;;;;;;;0.73;0.70;;;;;;;24.77;49.93;100333.81;10391335;28;20475;-62
2023/09/02 16:30:27;;;;;;;0.68;0.63;;;;;;;24.54;50.86;100335.53;10387873;28;20045;-61
2023/09/02 16:35:29;;;;;;;0.88;0.70;;;;;;;24.27;51.86;100334.09;10389507;28;20789;-61
2023/09/02 16:40:33;;;;;;;1.80;0.80;;;;;;;24.32;52.22;100328.22;10405280;28;20048;-61
2023/09/02 16:45:36;;;;;;;1.52;0.90;;;;;;;24.95;51.18;100320.19;10389154;28;20405;-61
2023/09/02 16:50:41;;;;;;;1.05;0.80;;;;;;;24.98;51.34;100330.53;10393341;28;20103;-61
2023/09/02 16:55:54;;;;;;;2.63;1.25;;;;;;;24.84;52.24;100324.09;10391627;28;20590;-61
2023/09/02 17:01:04;;;;;;;2.15;1.10;;;;;;;24.90;52.38;100330.56;10390742;28;20060;-61
2023/09/02 17:06:06;;;;;;;2.60;1.38;;;;;;;24.65;52.77;100334.34;10388419;28;20124;-61
2023/09/02 17:11:09;;;;;;;5.00;0.98;;;;;;;24.37;53.70;100338.44;10387802;28;20057;-62
2023/09/02 17:16:12;;;;;;;2.83;1.10;;;;;;;24.18;54.20;100337.75;10390392;28;20052;-62
2023/09/02 17:21:15;;;;;;;2.65;1.10;;;;;;;23.98;54.60;100335.59;10389081;28;20049;-62
2023/09/02 17:26:17;;;;;;;3.22;0.90;;;;;;;23.67;55.55;100337.25;10388333;28;20045;-62
2023/09/02 17:31:20;;;;;;;1.92;0.70;;;;;;;23.40;56.26;100344.56;10391131;28;20167;-61
2023/09/02 17:36:22;;;;;;;4.15;0.85;;;;;;;23.25;56.53;100339.97;10390690;28;20049;-61
2023/09/02 17:41:24;;;;;;;1.48;0.80;;;;;;;23.07;56.53;100339.25;10393419;28;20053;-61
2023/09/02 17:46:26;;;;;;;3.30;0.80;;;;;;;22.86;57.16;100342.34;10385288;28;20114;-61
2023/09/02 17:51:28;;;;;;;2.97;0.80;;;;;;;22.66;57.58;100349.72;10391281;28;20073;-62
2023/09/02 17:56:30;;;;;;;2.33;1.00;;;;;;;22.42;58.22;100359.41;10390708;28;20066;-61
2023/09/02 18:01:32;;;;;;;3.78;1.13;;;;;;;22.12;58.88;100368.69;10387321;28;20449;-61
2023/09/02 18:06:34;;;;;;;2.75;1.35;;;;;;;21.80;59.78;100366.53;10392628;28;20048;-61
2023/09/02 18:11:36;;;;;;;2.20;1.17;;;;;;;21.59;60.65;100375.84;10391709;28;20136;-62
2023/09/02 18:16:38;;;;;;;3.60;1.00;;;;;;;21.39;61.00;100380.47;10386149;28;20045;-62
2023/09/02 18:21:41;;;;;;;1.23;0.95;;;;;;;21.27;61.55;100386.09;10388477;28;20231;-61
2023/09/02 18:26:43;;;;;;;1.50;1.02;;;;;;;21.02;62.26;100388.47;10388837;28;20138;-61
2023/09/02 18:31:45;;;;;;;1.67;1.00;;;;;;;20.94;62.63;100395.50;10386017;28;20135;-61
2023/09/02 18:36:47;;;;;;;1.27;1.00;;;;;;;20.76;62.93;100398.09;10387864;28;20045;-60
2023/09/02 18:41:50;;;;;;;3.28;1.00;;;;;;;20.60;63.53;100415.63;10390447;28;20057;-61
2023/09/02 18:46:52;;;;;;;4.50;1.10;;;;;;;20.38;63.85;100430.03;10387038;28;20046;-61
2023/09/02 18:51:54;;;;;;;3.10;0.90;;;;;;;20.22;64.36;100435.06;10385094;28;20050;-61
2023/09/02 18:56:56;;;;;;;1.33;0.93;;;;;;;20.14;64.60;100454.38;10385961;28;20037;-61
2023/09/02 19:01:58;;;;;;;4.57;1.13;;;;;;;20.03;64.76;100451.03;10398659;28;20045;-61
2023/09/02 19:07:01;;;;;;;2.83;0.98;;;;;;;19.90;65.55;100455.75;10386104;28;20029;-61
2023/09/02 19:12:04;;;;;;;3.80;1.15;;;;;;;19.83;65.54;100465.25;10385996;28;20053;-60
2023/09/02 19:17:06;;;;;;;3.22;0.93;;;;;;;19.74;65.77;100481.97;10385456;28;20045;-61
2023/09/02 19:22:08;;;;;;;1.25;0.85;;;;;;;19.56;66.19;100481.81;10386588;28;20576;-60
2023/09/02 19:27:10;;;;;;;1.13;0.80;;;;;;;19.50;66.22;100498.25;10385763;28;20770;-61
2023/09/02 19:32:13;;;;;;;3.42;0.82;;;;;;;19.31;66.88;100509.63;10399678;28;20440;-61
2023/09/02 19:37:15;;;;;;;0.95;0.90;;;;;;;19.24;66.69;100508.47;10393854;28;20409;-62
2023/09/02 19:42:17;;;;;;;3.05;1.15;;;;;;;19.13;67.21;100516.53;10392043;28;20053;-60
2023/09/02 19:47:20;;;;;;;1.33;1.10;;;;;;;19.10;66.93;100519.44;10400687;28;20064;-60
2023/09/02 19:52:23;;;;;;;4.18;1.02;;;;;;;19.10;66.92;100523.88;10392155;28;20589;-60
2023/09/02 19:57:25;;;;;;;2.50;1.00;;;;;;;19.08;67.00;100536.44;10393397;28;20382;-60
2023/09/02 20:02:27;;;;;;;3.85;1.00;;;;;;;18.98;67.23;100540.81;10395237;28;20060;-60
2023/09/02 20:07:30;;;;;;;3.80;1.00;;;;;;;18.89;67.46;100544.25;10390374;28;20057;-60
2023/09/02 20:12:31;;;;;;;2.08;1.20;;;;;;;18.84;67.17;100549.09;10399199;28;20577;-61
2023/09/02 20:17:33;;;;;;;1.42;1.00;;;;;;;18.76;67.64;100549.75;10391102;28;20494;-60
2023/09/02 20:22:35;;;;;;;1.25;0.93;;;;;;;18.71;67.57;100554.56;10398316;28;20512;-60
2023/09/02 20:27:38;;;;;;;2.17;1.00;;;;;;;18.59;67.74;100559.09;10398159;28;20045;-60
2023/09/02 20:32:40;;;;;;;32.40;1.90;;;;;;;18.57;67.73;100563.69;10393898;28;20053;-61
2023/09/02 20:37:42;;;;;;;3.90;1.52;;;;;;;18.55;67.57;100575.34;10394506;28;20460;-61
2023/09/02 20:42:47;;;;;;;1.95;1.10;;;;;;;18.48;67.73;100575.03;10388179;28;20401;-61
2023/09/02 20:47:49;;;;;;;3.55;1.70;;;;;;;18.50;68.04;100572.28;10398854;28;20147;-61
2023/09/02 20:52:51;;;;;;;1.35;1.00;;;;;;;18.55;68.12;100575.34;10386030;28;20049;-61
2023/09/02 20:57:53;;;;;;;3.70;1.00;;;;;;;18.61;68.04;100569.56;10398879;28;20060;-60
2023/09/02 21:02:55;;;;;;;2.88;1.08;;;;;;;18.74;67.65;100567.59;10393187;28;20049;-61
2023/09/02 21:08:01;;;;;;;1.95;1.05;;;;;;;18.80;67.30;100580.31;10391011;28;20052;-61
2023/09/02 21:13:04;;;;;;;2.10;1.13;;;;;;;18.69;67.39;100596.25;10391916;28;20762;-61
2023/09/02 21:18:07;;;;;;;1.38;1.00;;;;;;;18.72;67.71;100597.81;10392658;28;20037;-61
2023/09/02 21:23:09;;;;;;;1.70;1.13;;;;;;;18.74;67.59;100598.53;10388059;28;20514;-61
2023/09/02 21:28:11;;;;;;;6.80;1.63;;;;;;;18.68;67.70;100605.19;10389846;28;20059;-61
2023/09/02 21:33:13;;;;;;;2.13;0.98;;;;;;;18.69;67.93;100608.69;10396946;28;20494;-61
2023/09/02 21:38:15;;;;;;;3.13;1.30;;;;;;;18.72;67.47;100608.41;10386096;28;20045;-61
2023/09/02 21:43:17;;;;;;;4.22;1.20;;;;;;;18.69;67.65;100606.84;10385539;28;20046;-61
2023/09/02 21:48:19;;;;;;;1.30;1.08;;;;;;;18.62;67.45;100605.69;10383839;28;20045;-60
2023/09/02 21:53:21;;;;;;;1.95;1.20;;;;;;;18.60;67.89;100610.28;10384718;28;20057;-60
2023/09/02 21:58:25;;;;;;;2.10;1.20;;;;;;;18.50;67.93;100614.66;10382917;28;20060;-60
2023/09/02 22:03:28;;;;;;;2.67;1.20;;;;;;;18.48;67.88;100608.63;10382194;28;20076;-60
2023/09/02 22:08:31;;;;;;;6.68;1.85;;;;;;;18.39;68.09;100612.03;10417540;28;20627;-60
2023/09/02 22:13:34;;;;;;;2.70;1.15;;;;;;;18.39;67.89;100612.03;10383503;28;20045;-60
2023/09/02 22:18:36;;;;;;;3.33;1.20;;;;;;;18.36;67.91;100617.59;10384262;28;20072;-60
2023/09/02 22:23:40;;;;;;;1.58;1.20;;;;;;;18.34;68.08;100615.03;10384815;28;20060;-61
2023/09/02 22:28:42;;;;;;;4.40;1.40;;;;;;;18.31;67.76;100614.44;10383310;28;20300;-60
2023/09/02 22:33:47;;;;;;;2.35;1.20;;;;;;;18.30;67.82;100618.09;10382786;28;20563;-60
2023/09/02 22:38:49;;;;;;;2.92;1.25;;;;;;;18.30;68.07;100623.38;10385036;28;20056;-61
2023/09/02 22:43:53;;;;;;;1.55;1.10;;;;;;;18.07;68.48;100632.28;10418788;28;20034;-60
2023/09/02 22:48:55;;;;;;;2.45;1.25;;;;;;;18.11;68.34;100625.78;10381108;28;20049;-60
2023/09/02 22:53:58;;;;;;;2.50;0.98;;;;;;;18.15;68.37;100638.66;10390105;28;20064;-60
2023/09/02 22:59:00;;;;;;;4.65;1.30;;;;;;;18.18;68.46;100640.22;10383559;28;21217;-61
2023/09/02 23:04:03;;;;;;;3.75;1.35;;;;;;;18.17;68.24;100641.16;10385092;28;20053;-60
2023/09/02 23:09:06;;;;;;;1.48;1.10;;;;;;;18.14;68.41;100639.59;10394156;28;20056;-61